sensor_id;sensor_type;location;lat;lon;timestamp;P1;durP1;ratioP1;P2;durP2;ratioP2
47545;SDS011;50104;52.002;4.688;2024-02-14T00:02:13;23.23;;;15.57;;
47545;SDS011;50104;52.002;4.688;2024-02-14T00:07:15;23.30;;;18.13;;
47545;SDS011;50104;52.002;4.688;2024-02-14T00:12:15;25.75;;;18.85;;
47545;SDS011;50104;52.002;4.688;2024-02-14T00:17:16;30.77;;;19.17;;
47545;SDS011;50104;52.002;4.688;2024-02-14T00:22:17;34.47;;;21.05;;
47545;SDS011;50104;52.002;4.688;2024-02-14T00:27:18;31.67;;;20.92;;
47545;SDS011;50104;52.002;4.688;2024-02-14T00:32:19;28.20;;;18.25;;
47545;SDS011;50104;52.002;4.688;2024-02-14T00:37:20;31.33;;;21.17;;
47545;SDS011;50104;52.002;4.688;2024-02-14T00:42:20;27.15;;;19.08;;
47545;SDS011;50104;52.002;4.688;2024-02-14T00:47:23;33.60;;;21.00;;
47545;SDS011;50104;52.002;4.688;2024-02-14T00:52:23;35.63;;;22.90;;
47545;SDS011;50104;52.002;4.688;2024-02-14T00:57:24;29.38;;;20.55;;
47545;SDS011;50104;52.002;4.688;2024-02-14T01:02:28;33.35;;;20.40;;
47545;SDS011;50104;52.002;4.688;2024-02-14T01:07:30;36.10;;;22.02;;
47545;SDS011;50104;52.002;4.688;2024-02-14T01:12:31;41.55;;;24.33;;
47545;SDS011;50104;52.002;4.688;2024-02-14T01:17:31;34.60;;;21.90;;
47545;SDS011;50104;52.002;4.688;2024-02-14T01:22:33;39.65;;;20.95;;
47545;SDS011;50104;52.002;4.688;2024-02-14T01:27:36;37.90;;;22.25;;
47545;SDS011;50104;52.002;4.688;2024-02-14T01:32:37;36.95;;;22.88;;
47545;SDS011;50104;52.002;4.688;2024-02-14T01:37:39;40.03;;;23.63;;
47545;SDS011;50104;52.002;4.688;2024-02-14T01:42:39;37.55;;;24.00;;
47545;SDS011;50104;52.002;4.688;2024-02-14T01:47:40;39.33;;;24.83;;
47545;SDS011;50104;52.002;4.688;2024-02-14T01:52:41;37.05;;;23.95;;
47545;SDS011;50104;52.002;4.688;2024-02-14T01:57:44;34.28;;;23.08;;
47545;SDS011;50104;52.002;4.688;2024-02-14T02:02:45;35.47;;;21.08;;
47545;SDS011;50104;52.002;4.688;2024-02-14T02:07:46;33.58;;;22.20;;
47545;SDS011;50104;52.002;4.688;2024-02-14T02:12:48;32.67;;;22.65;;
47545;SDS011;50104;52.002;4.688;2024-02-14T02:17:51;29.38;;;18.60;;
47545;SDS011;50104;52.002;4.688;2024-02-14T02:22:53;26.98;;;16.80;;
47545;SDS011;50104;52.002;4.688;2024-02-14T02:27:54;23.55;;;16.25;;
47545;SDS011;50104;52.002;4.688;2024-02-14T02:32:56;22.73;;;14.85;;
47545;SDS011;50104;52.002;4.688;2024-02-14T02:37:58;23.48;;;14.43;;
47545;SDS011;50104;52.002;4.688;2024-02-14T02:42:59;27.08;;;17.73;;
47545;SDS011;50104;52.002;4.688;2024-02-14T02:48:00;24.70;;;13.73;;
47545;SDS011;50104;52.002;4.688;2024-02-14T02:53:01;28.25;;;18.30;;
47545;SDS011;50104;52.002;4.688;2024-02-14T02:58:02;29.77;;;18.08;;
47545;SDS011;50104;52.002;4.688;2024-02-14T03:03:04;30.02;;;17.20;;
47545;SDS011;50104;52.002;4.688;2024-02-14T03:08:08;35.80;;;18.70;;
47545;SDS011;50104;52.002;4.688;2024-02-14T03:13:15;31.13;;;16.77;;
47545;SDS011;50104;52.002;4.688;2024-02-14T03:18:17;37.45;;;20.40;;
47545;SDS011;50104;52.002;4.688;2024-02-14T03:23:17;42.13;;;20.85;;
47545;SDS011;50104;52.002;4.688;2024-02-14T03:28:18;40.13;;;19.60;;
47545;SDS011;50104;52.002;4.688;2024-02-14T03:33:20;45.05;;;19.95;;
47545;SDS011;50104;52.002;4.688;2024-02-14T03:38:27;41.95;;;20.38;;
47545;SDS011;50104;52.002;4.688;2024-02-14T03:43:29;40.28;;;19.30;;
47545;SDS011;50104;52.002;4.688;2024-02-14T03:48:29;45.42;;;20.75;;
47545;SDS011;50104;52.002;4.688;2024-02-14T03:53:31;49.58;;;20.80;;
47545;SDS011;50104;52.002;4.688;2024-02-14T03:58:33;45.05;;;22.30;;
47545;SDS011;50104;52.002;4.688;2024-02-14T04:03:37;43.28;;;21.52;;
47545;SDS011;50104;52.002;4.688;2024-02-14T04:08:38;42.58;;;19.50;;
47545;SDS011;50104;52.002;4.688;2024-02-14T04:13:38;49.30;;;20.98;;
47545;SDS011;50104;52.002;4.688;2024-02-14T04:18:40;45.03;;;19.90;;
47545;SDS011;50104;52.002;4.688;2024-02-14T04:23:42;46.75;;;22.35;;
47545;SDS011;50104;52.002;4.688;2024-02-14T04:28:43;44.92;;;20.80;;
47545;SDS011;50104;52.002;4.688;2024-02-14T04:33:44;49.22;;;21.95;;
47545;SDS011;50104;52.002;4.688;2024-02-14T04:39:08;55.83;;;21.90;;
47545;SDS011;50104;52.002;4.688;2024-02-14T04:44:09;51.90;;;22.70;;
47545;SDS011;50104;52.002;4.688;2024-02-14T04:49:10;53.78;;;24.38;;
47545;SDS011;50104;52.002;4.688;2024-02-14T04:54:11;37.83;;;19.02;;
47545;SDS011;50104;52.002;4.688;2024-02-14T04:59:13;38.30;;;18.92;;
47545;SDS011;50104;52.002;4.688;2024-02-14T05:04:14;38.50;;;17.33;;
47545;SDS011;50104;52.002;4.688;2024-02-14T05:09:16;35.45;;;17.98;;
47545;SDS011;50104;52.002;4.688;2024-02-14T05:14:18;51.42;;;22.80;;
47545;SDS011;50104;52.002;4.688;2024-02-14T05:19:19;38.47;;;20.85;;
47545;SDS011;50104;52.002;4.688;2024-02-14T05:24:21;45.90;;;21.38;;
47545;SDS011;50104;52.002;4.688;2024-02-14T05:29:22;41.97;;;21.13;;
47545;SDS011;50104;52.002;4.688;2024-02-14T05:34:23;43.58;;;20.17;;
47545;SDS011;50104;52.002;4.688;2024-02-14T05:39:24;36.25;;;17.50;;
47545;SDS011;50104;52.002;4.688;2024-02-14T05:44:25;33.75;;;16.67;;
47545;SDS011;50104;52.002;4.688;2024-02-14T05:49:27;34.17;;;15.32;;
47545;SDS011;50104;52.002;4.688;2024-02-14T05:54:28;35.25;;;17.08;;
47545;SDS011;50104;52.002;4.688;2024-02-14T05:59:28;33.15;;;15.25;;
47545;SDS011;50104;52.002;4.688;2024-02-14T06:04:30;33.90;;;16.90;;
47545;SDS011;50104;52.002;4.688;2024-02-14T06:09:31;45.45;;;17.50;;
47545;SDS011;50104;52.002;4.688;2024-02-14T06:14:32;38.28;;;19.15;;
47545;SDS011;50104;52.002;4.688;2024-02-14T06:19:35;50.03;;;21.35;;
47545;SDS011;50104;52.002;4.688;2024-02-14T06:24:36;45.40;;;20.58;;
47545;SDS011;50104;52.002;4.688;2024-02-14T06:29:37;43.70;;;19.30;;
47545;SDS011;50104;52.002;4.688;2024-02-14T06:34:38;42.72;;;21.05;;
47545;SDS011;50104;52.002;4.688;2024-02-14T06:39:39;41.88;;;19.48;;
47545;SDS011;50104;52.002;4.688;2024-02-14T06:44:40;46.28;;;21.60;;
47545;SDS011;50104;52.002;4.688;2024-02-14T06:49:41;42.08;;;18.23;;
47545;SDS011;50104;52.002;4.688;2024-02-14T06:54:42;42.75;;;18.08;;
47545;SDS011;50104;52.002;4.688;2024-02-14T06:59:42;45.42;;;19.95;;
47545;SDS011;50104;52.002;4.688;2024-02-14T07:04:43;37.50;;;17.83;;
47545;SDS011;50104;52.002;4.688;2024-02-14T07:09:44;38.97;;;17.60;;
47545;SDS011;50104;52.002;4.688;2024-02-14T07:14:46;33.90;;;16.23;;
47545;SDS011;50104;52.002;4.688;2024-02-14T07:19:47;38.72;;;17.63;;
47545;SDS011;50104;52.002;4.688;2024-02-14T07:24:49;52.97;;;16.45;;
47545;SDS011;50104;52.002;4.688;2024-02-14T07:29:50;31.23;;;16.60;;
47545;SDS011;50104;52.002;4.688;2024-02-14T07:34:51;32.88;;;16.80;;
47545;SDS011;50104;52.002;4.688;2024-02-14T07:39:52;33.22;;;18.13;;
47545;SDS011;50104;52.002;4.688;2024-02-14T07:44:53;35.72;;;16.23;;
47545;SDS011;50104;52.002;4.688;2024-02-14T07:49:56;34.03;;;15.95;;
47545;SDS011;50104;52.002;4.688;2024-02-14T07:54:57;30.23;;;16.02;;
47545;SDS011;50104;52.002;4.688;2024-02-14T07:59:58;28.52;;;14.27;;
47545;SDS011;50104;52.002;4.688;2024-02-14T08:04:59;34.20;;;15.82;;
47545;SDS011;50104;52.002;4.688;2024-02-14T08:10:01;29.75;;;15.13;;
47545;SDS011;50104;52.002;4.688;2024-02-14T08:15:02;26.02;;;13.43;;
47545;SDS011;50104;52.002;4.688;2024-02-14T08:20:04;27.30;;;14.35;;
47545;SDS011;50104;52.002;4.688;2024-02-14T08:25:06;22.30;;;14.30;;
47545;SDS011;50104;52.002;4.688;2024-02-14T08:30:07;19.00;;;12.27;;
47545;SDS011;50104;52.002;4.688;2024-02-14T08:35:09;19.35;;;10.35;;
47545;SDS011;50104;52.002;4.688;2024-02-14T08:40:10;22.17;;;13.20;;
47545;SDS011;50104;52.002;4.688;2024-02-14T08:45:12;21.15;;;12.75;;
47545;SDS011;50104;52.002;4.688;2024-02-14T08:50:13;27.83;;;13.55;;
47545;SDS011;50104;52.002;4.688;2024-02-14T08:55:14;26.70;;;13.55;;
47545;SDS011;50104;52.002;4.688;2024-02-14T09:00:17;24.58;;;13.40;;
47545;SDS011;50104;52.002;4.688;2024-02-14T09:05:22;32.13;;;13.68;;
47545;SDS011;50104;52.002;4.688;2024-02-14T09:10:22;34.28;;;15.18;;
47545;SDS011;50104;52.002;4.688;2024-02-14T09:15:23;30.13;;;15.02;;
47545;SDS011;50104;52.002;4.688;2024-02-14T09:20:24;26.23;;;13.93;;
47545;SDS011;50104;52.002;4.688;2024-02-14T09:25:25;28.48;;;14.40;;
47545;SDS011;50104;52.002;4.688;2024-02-14T09:30:26;24.77;;;12.35;;
47545;SDS011;50104;52.002;4.688;2024-02-14T09:35:27;21.80;;;11.25;;
47545;SDS011;50104;52.002;4.688;2024-02-14T09:40:27;24.58;;;12.35;;
47545;SDS011;50104;52.002;4.688;2024-02-14T09:45:29;18.98;;;10.70;;
47545;SDS011;50104;52.002;4.688;2024-02-14T09:50:33;25.52;;;11.93;;
47545;SDS011;50104;52.002;4.688;2024-02-14T09:55:34;22.92;;;11.07;;
47545;SDS011;50104;52.002;4.688;2024-02-14T10:00:36;23.77;;;11.13;;
47545;SDS011;50104;52.002;4.688;2024-02-14T10:05:37;23.73;;;12.80;;
47545;SDS011;50104;52.002;4.688;2024-02-14T10:10:37;20.55;;;11.98;;
47545;SDS011;50104;52.002;4.688;2024-02-14T10:15:38;18.33;;;10.93;;
47545;SDS011;50104;52.002;4.688;2024-02-14T10:20:39;19.33;;;10.32;;
47545;SDS011;50104;52.002;4.688;2024-02-14T10:25:43;19.23;;;10.27;;
47545;SDS011;50104;52.002;4.688;2024-02-14T10:30:47;19.42;;;9.77;;
47545;SDS011;50104;52.002;4.688;2024-02-14T10:35:52;18.00;;;8.43;;
47545;SDS011;50104;52.002;4.688;2024-02-14T10:40:55;19.85;;;9.85;;
47545;SDS011;50104;52.002;4.688;2024-02-14T10:45:58;22.65;;;11.13;;
47545;SDS011;50104;52.002;4.688;2024-02-14T10:51:06;21.83;;;11.27;;
47545;SDS011;50104;52.002;4.688;2024-02-14T10:56:12;20.70;;;12.10;;
47545;SDS011;50104;52.002;4.688;2024-02-14T11:01:19;26.75;;;13.80;;
47545;SDS011;50104;52.002;4.688;2024-02-14T11:06:20;30.13;;;13.60;;
47545;SDS011;50104;52.002;4.688;2024-02-14T11:11:21;25.63;;;11.55;;
47545;SDS011;50104;52.002;4.688;2024-02-14T11:16:27;27.73;;;15.30;;
47545;SDS011;50104;52.002;4.688;2024-02-14T11:21:28;31.35;;;16.23;;
47545;SDS011;50104;52.002;4.688;2024-02-14T11:26:37;24.17;;;13.30;;
47545;SDS011;50104;52.002;4.688;2024-02-14T11:31:49;27.52;;;14.30;;
47545;SDS011;50104;52.002;4.688;2024-02-14T11:37:00;26.33;;;12.38;;
47545;SDS011;50104;52.002;4.688;2024-02-14T11:42:01;24.55;;;13.85;;
47545;SDS011;50104;52.002;4.688;2024-02-14T11:47:02;26.50;;;15.13;;
47545;SDS011;50104;52.002;4.688;2024-02-14T11:52:05;22.92;;;14.30;;
47545;SDS011;50104;52.002;4.688;2024-02-14T11:57:10;20.40;;;13.93;;
47545;SDS011;50104;52.002;4.688;2024-02-14T12:02:10;22.80;;;12.90;;
47545;SDS011;50104;52.002;4.688;2024-02-14T12:07:11;17.73;;;11.20;;
47545;SDS011;50104;52.002;4.688;2024-02-14T12:12:13;16.00;;;11.23;;
47545;SDS011;50104;52.002;4.688;2024-02-14T12:17:16;16.23;;;10.88;;
47545;SDS011;50104;52.002;4.688;2024-02-14T12:22:21;15.13;;;9.50;;
47545;SDS011;50104;52.002;4.688;2024-02-14T12:27:22;16.48;;;11.13;;
47545;SDS011;50104;52.002;4.688;2024-02-14T12:32:22;18.77;;;11.45;;
47545;SDS011;50104;52.002;4.688;2024-02-14T12:37:23;13.38;;;9.80;;
47545;SDS011;50104;52.002;4.688;2024-02-14T12:42:24;13.77;;;9.23;;
47545;SDS011;50104;52.002;4.688;2024-02-14T12:47:27;10.85;;;8.00;;
47545;SDS011;50104;52.002;4.688;2024-02-14T12:52:32;12.73;;;8.32;;
47545;SDS011;50104;52.002;4.688;2024-02-14T12:57:32;11.20;;;8.32;;
47545;SDS011;50104;52.002;4.688;2024-02-14T13:02:33;10.30;;;7.88;;
47545;SDS011;50104;52.002;4.688;2024-02-14T13:07:34;17.25;;;9.32;;
47545;SDS011;50104;52.002;4.688;2024-02-14T13:12:35;12.27;;;8.77;;
47545;SDS011;50104;52.002;4.688;2024-02-14T13:17:38;13.70;;;8.00;;
47545;SDS011;50104;52.002;4.688;2024-02-14T13:22:39;14.88;;;8.20;;
47545;SDS011;50104;52.002;4.688;2024-02-14T13:27:42;16.65;;;9.45;;
47545;SDS011;50104;52.002;4.688;2024-02-14T13:32:44;16.30;;;8.35;;
47545;SDS011;50104;52.002;4.688;2024-02-14T13:37:45;11.00;;;7.15;;
47545;SDS011;50104;52.002;4.688;2024-02-14T13:42:46;11.20;;;7.22;;
47545;SDS011;50104;52.002;4.688;2024-02-14T13:47:47;13.82;;;7.82;;
47545;SDS011;50104;52.002;4.688;2024-02-14T13:52:48;13.60;;;6.45;;
47545;SDS011;50104;52.002;4.688;2024-02-14T13:57:49;13.85;;;7.45;;
47545;SDS011;50104;52.002;4.688;2024-02-14T14:02:50;11.10;;;5.68;;
47545;SDS011;50104;52.002;4.688;2024-02-14T14:07:51;9.20;;;5.20;;
47545;SDS011;50104;52.002;4.688;2024-02-14T14:12:52;12.77;;;5.95;;
47545;SDS011;50104;52.002;4.688;2024-02-14T14:17:53;9.93;;;5.72;;
47545;SDS011;50104;52.002;4.688;2024-02-14T14:22:54;10.48;;;6.55;;
47545;SDS011;50104;52.002;4.688;2024-02-14T14:27:57;8.30;;;5.40;;
47545;SDS011;50104;52.002;4.688;2024-02-14T14:33:00;10.50;;;5.25;;
47545;SDS011;50104;52.002;4.688;2024-02-14T14:38:02;7.97;;;4.97;;
47545;SDS011;50104;52.002;4.688;2024-02-14T14:43:04;5.90;;;4.32;;
47545;SDS011;50104;52.002;4.688;2024-02-14T14:48:05;4.88;;;4.13;;
47545;SDS011;50104;52.002;4.688;2024-02-14T14:53:06;4.85;;;4.00;;
47545;SDS011;50104;52.002;4.688;2024-02-14T14:58:12;5.20;;;3.40;;
47545;SDS011;50104;52.002;4.688;2024-02-14T15:03:13;7.47;;;3.60;;
47545;SDS011;50104;52.002;4.688;2024-02-14T15:08:14;5.22;;;4.18;;
47545;SDS011;50104;52.002;4.688;2024-02-14T15:13:21;7.22;;;4.50;;
47545;SDS011;50104;52.002;4.688;2024-02-14T15:18:23;8.48;;;6.75;;
47545;SDS011;50104;52.002;4.688;2024-02-14T15:23:24;10.60;;;6.75;;
47545;SDS011;50104;52.002;4.688;2024-02-14T15:28:25;13.90;;;8.05;;
47545;SDS011;50104;52.002;4.688;2024-02-14T15:33:26;8.40;;;6.05;;
47545;SDS011;50104;52.002;4.688;2024-02-14T15:38:27;5.40;;;3.22;;
47545;SDS011;50104;52.002;4.688;2024-02-14T15:43:28;8.07;;;4.97;;
47545;SDS011;50104;52.002;4.688;2024-02-14T15:48:29;11.15;;;5.03;;
47545;SDS011;50104;52.002;4.688;2024-02-14T15:53:30;15.50;;;6.72;;
47545;SDS011;50104;52.002;4.688;2024-02-14T15:58:32;12.40;;;6.97;;
47545;SDS011;50104;52.002;4.688;2024-02-14T16:03:33;20.15;;;7.57;;
47545;SDS011;50104;52.002;4.688;2024-02-14T16:08:34;17.05;;;8.45;;
47545;SDS011;50104;52.002;4.688;2024-02-14T16:13:35;17.45;;;7.65;;
47545;SDS011;50104;52.002;4.688;2024-02-14T16:18:36;17.25;;;7.85;;
47545;SDS011;50104;52.002;4.688;2024-02-14T16:23:37;19.17;;;8.82;;
47545;SDS011;50104;52.002;4.688;2024-02-14T16:28:38;16.27;;;8.10;;
47545;SDS011;50104;52.002;4.688;2024-02-14T16:33:38;12.52;;;8.13;;
47545;SDS011;50104;52.002;4.688;2024-02-14T16:38:40;15.73;;;7.93;;
47545;SDS011;50104;52.002;4.688;2024-02-14T16:43:41;14.32;;;7.50;;
47545;SDS011;50104;52.002;4.688;2024-02-14T16:48:42;12.20;;;6.43;;
47545;SDS011;50104;52.002;4.688;2024-02-14T16:53:42;15.18;;;7.05;;
47545;SDS011;50104;52.002;4.688;2024-02-14T16:58:43;15.95;;;7.47;;
47545;SDS011;50104;52.002;4.688;2024-02-14T17:03:44;13.10;;;7.15;;
47545;SDS011;50104;52.002;4.688;2024-02-14T17:08:45;16.25;;;7.03;;
47545;SDS011;50104;52.002;4.688;2024-02-14T17:13:46;17.42;;;7.38;;
47545;SDS011;50104;52.002;4.688;2024-02-14T17:18:47;16.10;;;8.02;;
47545;SDS011;50104;52.002;4.688;2024-02-14T17:23:48;15.98;;;7.00;;
47545;SDS011;50104;52.002;4.688;2024-02-14T17:28:49;14.13;;;7.18;;
47545;SDS011;50104;52.002;4.688;2024-02-14T17:33:51;16.00;;;6.70;;
47545;SDS011;50104;52.002;4.688;2024-02-14T17:38:52;11.80;;;6.10;;
47545;SDS011;50104;52.002;4.688;2024-02-14T17:43:53;9.73;;;6.90;;
47545;SDS011;50104;52.002;4.688;2024-02-14T17:48:54;11.00;;;6.55;;
47545;SDS011;50104;52.002;4.688;2024-02-14T17:53:55;10.07;;;5.60;;
47545;SDS011;50104;52.002;4.688;2024-02-14T17:58:56;8.93;;;6.22;;
47545;SDS011;50104;52.002;4.688;2024-02-14T18:03:57;10.27;;;5.90;;
47545;SDS011;50104;52.002;4.688;2024-02-14T18:08:57;8.75;;;5.18;;
47545;SDS011;50104;52.002;4.688;2024-02-14T18:13:58;6.90;;;4.20;;
47545;SDS011;50104;52.002;4.688;2024-02-14T18:18:59;9.35;;;5.53;;
47545;SDS011;50104;52.002;4.688;2024-02-14T18:24:00;12.35;;;6.32;;
47545;SDS011;50104;52.002;4.688;2024-02-14T18:29:01;11.43;;;5.55;;
47545;SDS011;50104;52.002;4.688;2024-02-14T18:34:02;10.63;;;7.03;;
47545;SDS011;50104;52.002;4.688;2024-02-14T18:39:02;12.18;;;5.68;;
47545;SDS011;50104;52.002;4.688;2024-02-14T18:44:03;10.13;;;7.30;;
47545;SDS011;50104;52.002;4.688;2024-02-14T18:49:05;8.95;;;6.47;;
47545;SDS011;50104;52.002;4.688;2024-02-14T18:54:07;12.40;;;6.50;;
47545;SDS011;50104;52.002;4.688;2024-02-14T18:59:08;12.07;;;6.40;;
47545;SDS011;50104;52.002;4.688;2024-02-14T19:04:09;8.38;;;5.88;;
47545;SDS011;50104;52.002;4.688;2024-02-14T19:09:10;9.82;;;6.38;;
47545;SDS011;50104;52.002;4.688;2024-02-14T19:14:12;9.32;;;4.45;;
47545;SDS011;50104;52.002;4.688;2024-02-14T19:19:12;8.05;;;5.28;;
47545;SDS011;50104;52.002;4.688;2024-02-14T19:24:15;8.68;;;5.68;;
47545;SDS011;50104;52.002;4.688;2024-02-14T19:29:16;10.88;;;6.75;;
47545;SDS011;50104;52.002;4.688;2024-02-14T19:34:19;9.52;;;6.05;;
47545;SDS011;50104;52.002;4.688;2024-02-14T19:39:20;12.40;;;6.10;;
47545;SDS011;50104;52.002;4.688;2024-02-14T19:44:21;9.73;;;6.40;;
47545;SDS011;50104;52.002;4.688;2024-02-14T19:49:24;10.13;;;6.85;;
47545;SDS011;50104;52.002;4.688;2024-02-14T19:54:27;5.63;;;5.05;;
47545;SDS011;50104;52.002;4.688;2024-02-14T19:59:29;10.43;;;6.53;;
47545;SDS011;50104;52.002;4.688;2024-02-14T20:04:30;9.25;;;6.53;;
47545;SDS011;50104;52.002;4.688;2024-02-14T20:09:31;15.18;;;8.43;;
47545;SDS011;50104;52.002;4.688;2024-02-14T20:14:32;16.25;;;9.52;;
47545;SDS011;50104;52.002;4.688;2024-02-14T20:19:34;16.20;;;9.52;;
47545;SDS011;50104;52.002;4.688;2024-02-14T20:24:35;16.42;;;7.55;;
47545;SDS011;50104;52.002;4.688;2024-02-14T20:29:36;11.88;;;7.93;;
47545;SDS011;50104;52.002;4.688;2024-02-14T20:34:37;13.35;;;7.53;;
47545;SDS011;50104;52.002;4.688;2024-02-14T20:39:38;18.10;;;6.57;;
47545;SDS011;50104;52.002;4.688;2024-02-14T20:44:39;12.57;;;6.60;;
47545;SDS011;50104;52.002;4.688;2024-02-14T20:49:40;13.27;;;6.78;;
47545;SDS011;50104;52.002;4.688;2024-02-14T20:54:41;12.80;;;5.22;;
47545;SDS011;50104;52.002;4.688;2024-02-14T20:59:42;11.43;;;6.53;;
47545;SDS011;50104;52.002;4.688;2024-02-14T21:04:43;18.75;;;6.63;;
47545;SDS011;50104;52.002;4.688;2024-02-14T21:09:44;14.55;;;5.50;;
47545;SDS011;50104;52.002;4.688;2024-02-14T21:14:46;17.23;;;7.20;;
47545;SDS011;50104;52.002;4.688;2024-02-14T21:19:48;13.82;;;6.25;;
47545;SDS011;50104;52.002;4.688;2024-02-14T21:24:48;12.70;;;5.30;;
47545;SDS011;50104;52.002;4.688;2024-02-14T21:29:49;11.13;;;4.18;;
47545;SDS011;50104;52.002;4.688;2024-02-14T21:34:50;14.75;;;4.18;;
47545;SDS011;50104;52.002;4.688;2024-02-14T21:39:51;13.88;;;4.18;;
47545;SDS011;50104;52.002;4.688;2024-02-14T21:44:52;14.02;;;4.07;;
47545;SDS011;50104;52.002;4.688;2024-02-14T21:49:53;13.05;;;4.75;;
47545;SDS011;50104;52.002;4.688;2024-02-14T21:54:56;20.50;;;5.00;;
47545;SDS011;50104;52.002;4.688;2024-02-14T21:59:59;12.85;;;4.60;;
47545;SDS011;50104;52.002;4.688;2024-02-14T22:04:59;14.75;;;5.55;;
47545;SDS011;50104;52.002;4.688;2024-02-14T22:10:01;19.50;;;5.82;;
47545;SDS011;50104;52.002;4.688;2024-02-14T22:15:07;18.08;;;6.40;;
47545;SDS011;50104;52.002;4.688;2024-02-14T22:20:08;16.13;;;7.63;;
47545;SDS011;50104;52.002;4.688;2024-02-14T22:25:11;20.10;;;7.80;;
47545;SDS011;50104;52.002;4.688;2024-02-14T22:30:12;21.20;;;8.82;;
47545;SDS011;50104;52.002;4.688;2024-02-14T22:35:13;22.77;;;8.95;;
47545;SDS011;50104;52.002;4.688;2024-02-14T22:40:14;17.45;;;8.45;;
47545;SDS011;50104;52.002;4.688;2024-02-14T22:45:15;16.98;;;8.38;;
47545;SDS011;50104;52.002;4.688;2024-02-14T22:50:16;16.13;;;8.68;;
47545;SDS011;50104;52.002;4.688;2024-02-14T22:55:17;17.45;;;7.93;;
47545;SDS011;50104;52.002;4.688;2024-02-14T23:00:18;17.92;;;7.38;;
47545;SDS011;50104;52.002;4.688;2024-02-14T23:05:22;13.20;;;6.68;;
47545;SDS011;50104;52.002;4.688;2024-02-14T23:10:23;15.00;;;6.32;;
47545;SDS011;50104;52.002;4.688;2024-02-14T23:15:24;17.02;;;6.60;;
47545;SDS011;50104;52.002;4.688;2024-02-14T23:20:25;15.80;;;5.45;;
47545;SDS011;50104;52.002;4.688;2024-02-14T23:25:26;16.05;;;5.82;;
47545;SDS011;50104;52.002;4.688;2024-02-14T23:30:30;12.75;;;4.60;;
47545;SDS011;50104;52.002;4.688;2024-02-14T23:35:32;16.52;;;5.40;;
47545;SDS011;50104;52.002;4.688;2024-02-14T23:40:33;9.73;;;5.32;;
47545;SDS011;50104;52.002;4.688;2024-02-14T23:45:34;15.10;;;5.90;;
47545;SDS011;50104;52.002;4.688;2024-02-14T23:50:35;11.45;;;4.75;;
47545;SDS011;50104;52.002;4.688;2024-02-14T23:55:36;9.80;;;4.90;;
